createdAt,value
2022-12-16T00:02:24.659Z,97690.03
2022-12-16T00:04:51.215Z,97687.59
2022-12-16T00:07:17.653Z,97690.13
2022-12-16T00:09:44.101Z,97692.69
2022-12-16T00:12:10.606Z,97687.56
2022-12-16T00:14:37.081Z,97679.09
2022-12-16T00:17:03.585Z,97682.41
2022-12-16T00:19:31.517Z,97687.53
2022-12-16T00:21:58.194Z,97688.50
2022-12-16T00:24:24.701Z,97687.69
2022-12-16T00:26:51.273Z,97685.19
2022-12-16T00:29:18.421Z,97682.59
2022-12-16T00:31:47.953Z,97682.56
2022-12-16T00:34:16.185Z,97687.59
2022-12-16T00:36:43.714Z,97684.94
2022-12-16T00:39:11.282Z,97684.06
2022-12-16T00:41:38.189Z,97673.78
2022-12-16T00:44:05.292Z,97675.47
2022-12-16T00:46:31.806Z,97682.38
2022-12-16T00:48:58.314Z,97678.97
2022-12-16T00:51:24.820Z,97679.84
2022-12-16T00:53:51.368Z,97684.13
2022-12-16T00:56:20.714Z,97690.97
2022-12-16T00:58:47.520Z,97686.72
2022-12-16T01:01:14.877Z,97688.44
2022-12-16T01:03:42.104Z,97684.22
2022-12-16T01:06:16.056Z,97683.34
2022-12-16T01:08:48.630Z,97683.28
2022-12-16T01:11:20.201Z,97694.44
2022-12-16T01:13:51.264Z,97696.94
2022-12-16T01:16:19.245Z,97689.09
2022-12-16T01:18:45.836Z,97694.34
2022-12-16T01:21:15.394Z,97695.28
2022-12-16T01:23:42.236Z,97702.19
2022-12-16T01:26:16.436Z,97710.72
2022-12-16T01:28:43.210Z,97709.91
2022-12-16T01:31:10.164Z,97714.03
2022-12-16T01:33:36.791Z,97720.00
2022-12-16T01:36:07.772Z,97718.41
2022-12-16T01:38:36.151Z,97722.69
2022-12-16T01:41:04.652Z,97728.59
2022-12-16T01:43:37.482Z,97726.06
2022-12-16T01:46:16.070Z,97723.59
2022-12-16T01:48:58.443Z,97730.41
2022-12-16T01:51:37.351Z,97738.06
2022-12-16T01:54:29.651Z,97736.41
2022-12-16T01:57:09.338Z,97738.09
2022-12-16T01:59:41.508Z,97741.50
2022-12-16T02:02:09.033Z,97745.75
2022-12-16T02:04:35.972Z,97743.22
2022-12-16T02:07:02.482Z,97732.16
2022-12-16T02:09:29.087Z,97733.00
2022-12-16T02:12:26.254Z,97732.09
2022-12-16T02:15:26.799Z,97736.38
2022-12-16T02:18:05.102Z,97733.00
2022-12-16T02:20:52.927Z,97733.88
2022-12-16T02:23:48.260Z,97736.38
2022-12-16T02:26:29.540Z,97730.41
2022-12-16T02:29:27.898Z,97725.22
2022-12-16T02:32:32.541Z,97734.56
2022-12-16T02:35:26.006Z,97730.22
2022-12-16T02:38:14.865Z,97731.09
2022-12-16T02:41:14.978Z,97743.06
2022-12-16T02:43:53.371Z,97737.09
2022-12-16T02:46:25.710Z,97743.13
2022-12-16T02:48:53.626Z,97733.81
2022-12-16T02:51:24.348Z,97732.94
2022-12-16T02:53:53.395Z,97728.59
2022-12-16T02:57:07.340Z,97732.88
2022-12-16T03:00:02.342Z,97730.38
2022-12-16T03:02:47.499Z,97737.22
2022-12-16T03:05:40.824Z,97733.78
2022-12-16T03:08:14.452Z,97738.00
2022-12-16T03:11:01.000Z,97732.88
2022-12-16T03:13:35.171Z,97735.47
2022-12-16T03:16:06.903Z,97732.13
2022-12-16T03:18:38.677Z,97730.38
2022-12-16T03:21:07.936Z,97725.28
2022-12-16T03:23:50.058Z,97730.34
2022-12-16T03:26:25.945Z,97724.38
2022-12-16T03:29:02.254Z,97724.44
2022-12-16T03:32:03.141Z,97727.84
2022-12-16T03:34:48.300Z,97734.63
2022-12-16T03:37:15.339Z,97732.94
2022-12-16T03:39:48.789Z,97734.66
2022-12-16T03:42:16.215Z,97731.25
2022-12-16T03:44:47.757Z,97732.09
2022-12-16T03:47:19.800Z,97736.31
2022-12-16T03:49:49.842Z,97738.00
2022-12-16T03:52:16.396Z,97739.69
2022-12-16T03:54:42.899Z,97736.34
2022-12-16T03:57:15.008Z,97740.63
2022-12-16T03:59:42.905Z,97747.44
2022-12-16T04:02:09.560Z,97744.91
2022-12-16T04:04:36.123Z,97750.88
2022-12-16T04:07:20.818Z,97750.88
2022-12-16T04:09:49.967Z,97754.31
2022-12-16T04:12:35.546Z,97744.94
2022-12-16T04:15:20.790Z,97751.75
2022-12-16T04:18:05.937Z,97750.03
2022-12-16T04:20:56.122Z,97750.88
2022-12-16T04:23:45.324Z,97755.97
2022-12-16T04:26:12.209Z,97762.78
2022-12-16T04:28:38.672Z,97766.19
2022-12-16T04:31:05.873Z,97767.03
2022-12-16T04:33:51.312Z,97771.28
2022-12-16T04:36:36.636Z,97768.72
2022-12-16T04:39:22.736Z,97766.16
2022-12-16T04:42:12.458Z,97774.69
2022-12-16T04:44:57.705Z,97775.50
2022-12-16T04:47:43.368Z,97774.66
2022-12-16T04:50:28.584Z,97778.06
2022-12-16T04:53:13.942Z,97777.19
2022-12-16T04:56:03.839Z,97776.34
2022-12-16T04:58:49.521Z,97773.81
2022-12-16T05:01:34.891Z,97778.91
2022-12-16T05:04:20.071Z,97784.81
2022-12-16T05:07:05.526Z,97788.22
2022-12-16T05:09:50.756Z,97788.22
2022-12-16T05:12:36.214Z,97800.16
2022-12-16T05:15:21.544Z,97808.66
2022-12-16T05:18:06.797Z,97799.31
2022-12-16T05:21:05.892Z,97802.72
2022-12-16T05:23:51.227Z,97813.72
2022-12-16T05:26:36.582Z,97823.13
2022-12-16T05:29:21.809Z,97823.97
2022-12-16T05:32:07.109Z,97819.69
2022-12-16T05:34:52.333Z,97818.00
2022-12-16T05:37:37.737Z,97818.88
2022-12-16T05:40:23.706Z,97829.91
2022-12-16T05:43:13.346Z,97834.13
2022-12-16T05:46:01.502Z,97844.28
2022-12-16T05:48:47.968Z,97843.47
2022-12-16T05:51:33.154Z,97847.72
2022-12-16T05:54:18.437Z,97845.22
2022-12-16T05:57:03.902Z,97859.66
2022-12-16T05:59:49.078Z,97858.78
2022-12-16T06:02:34.660Z,97861.31
2022-12-16T06:05:19.672Z,97865.59
2022-12-16T06:08:12.038Z,97865.56
2022-12-16T06:11:13.992Z,97874.06
2022-12-16T06:13:59.040Z,97875.75
2022-12-16T06:16:44.228Z,97891.03
2022-12-16T06:19:29.527Z,97887.63
2022-12-16T06:22:14.800Z,97896.94
2022-12-16T06:25:00.216Z,97902.06
2022-12-16T06:27:45.160Z,97902.13
2022-12-16T06:30:30.529Z,97907.22
2022-12-16T06:33:15.993Z,97919.13
2022-12-16T06:36:01.315Z,97914.88
2022-12-16T06:38:46.713Z,97924.19
2022-12-16T06:41:31.839Z,97925.94
2022-12-16T06:44:17.079Z,97942.94
2022-12-16T06:47:02.469Z,97943.75
2022-12-16T06:49:47.643Z,97947.97
2022-12-16T06:52:32.945Z,97952.22
2022-12-16T06:55:18.098Z,97956.50
2022-12-16T06:58:09.607Z,97956.50
2022-12-16T07:00:55.297Z,97963.22
2022-12-16T07:03:40.658Z,97973.31
2022-12-16T07:06:26.119Z,97973.31
2022-12-16T07:09:11.413Z,97974.25
2022-12-16T07:11:56.641Z,97971.78
2022-12-16T07:14:41.992Z,97975.19
2022-12-16T07:17:27.214Z,97973.47
2022-12-16T07:20:12.715Z,97972.63
2022-12-16T07:23:09.894Z,97975.19
2022-12-16T07:25:58.410Z,97993.00
2022-12-16T07:28:43.809Z,97991.34
2022-12-16T07:31:28.851Z,97994.69
2022-12-16T07:34:14.104Z,98010.84
2022-12-16T07:36:59.336Z,98012.50
2022-12-16T07:39:46.714Z,98016.81
2022-12-16T07:42:33.770Z,98019.41
2022-12-16T07:45:18.996Z,98027.09
2022-12-16T07:48:08.943Z,98028.78
2022-12-16T07:50:55.785Z,98034.72
2022-12-16T07:53:41.537Z,98037.16
2022-12-16T07:56:27.276Z,98041.38
2022-12-16T07:59:13.255Z,98050.78
2022-12-16T08:01:58.652Z,98053.38
2022-12-16T08:04:43.904Z,98052.59
2022-12-16T08:07:29.242Z,98055.16
2022-12-16T08:10:14.536Z,98066.97
2022-12-16T08:12:59.959Z,98063.59
2022-12-16T08:15:46.270Z,98071.16
2022-12-16T08:18:31.617Z,98075.44
2022-12-16T08:21:16.859Z,98078.88
2022-12-16T08:24:01.941Z,98073.84
2022-12-16T08:26:47.223Z,98081.53
2022-12-16T08:29:44.314Z,98083.25
2022-12-16T08:32:30.040Z,98087.44
2022-12-16T08:35:15.280Z,98092.53
2022-12-16T08:38:00.543Z,98090.78
2022-12-16T08:40:45.722Z,98087.38
2022-12-16T08:43:31.509Z,98091.66
2022-12-16T08:46:16.638Z,98089.91
2022-12-16T08:49:01.965Z,98089.94
2022-12-16T08:51:47.990Z,98095.84
2022-12-16T08:54:33.133Z,98102.63
2022-12-16T08:57:18.368Z,98106.81
2022-12-16T09:00:03.654Z,98111.06
2022-12-16T09:02:49.132Z,98106.91
2022-12-16T09:05:34.551Z,98110.25
2022-12-16T09:08:22.730Z,98112.88
2022-12-16T09:11:08.498Z,98109.59
2022-12-16T09:13:53.776Z,98113.03
2022-12-16T09:16:39.715Z,98116.38
2022-12-16T09:19:24.631Z,98117.19
2022-12-16T09:22:11.442Z,98119.78
2022-12-16T09:24:56.925Z,98120.63
2022-12-16T09:27:42.295Z,98127.47
2022-12-16T09:30:28.588Z,98123.22
2022-12-16T09:33:14.014Z,98121.56
2022-12-16T09:35:59.210Z,98130.91
2022-12-16T09:38:44.521Z,98121.53
2022-12-16T09:42:00.266Z,98129.19
2022-12-16T09:45:08.204Z,98130.94
2022-12-16T09:48:11.250Z,98132.66
2022-12-16T09:51:02.412Z,98128.47
2022-12-16T09:53:55.087Z,98137.81
2022-12-16T09:56:55.146Z,98133.63
2022-12-16T09:59:51.897Z,98135.31
2022-12-16T10:02:38.954Z,98135.34
2022-12-16T10:05:31.733Z,98131.09
2022-12-16T10:08:43.167Z,98139.59
2022-12-16T10:11:44.553Z,98148.09
2022-12-16T10:14:44.693Z,98144.69
2022-12-16T10:17:43.301Z,98146.41
2022-12-16T10:21:07.451Z,98152.34
2022-12-16T10:24:25.500Z,98147.22
2022-12-16T10:27:35.096Z,98148.03
2022-12-16T10:30:22.279Z,98155.72
2022-12-16T10:33:09.048Z,98149.78
2022-12-16T10:36:05.990Z,98148.88
2022-12-16T10:39:05.179Z,98143.72
2022-12-16T10:41:58.548Z,98148.81
2022-12-16T10:45:13.370Z,98148.78
2022-12-16T10:47:58.632Z,98148.75
2022-12-16T10:50:43.889Z,98146.94
2022-12-16T10:53:44.897Z,98147.72
2022-12-16T10:57:12.805Z,98157.94
2022-12-16T10:59:59.941Z,98154.47
2022-12-16T11:02:47.328Z,98148.63
2022-12-16T11:05:53.397Z,98154.41
2022-12-16T11:08:44.769Z,98154.22
2022-12-16T11:11:46.549Z,98155.94
2022-12-16T11:15:27.229Z,98160.13
2022-12-16T11:17:53.899Z,98163.41
2022-12-16T11:20:44.936Z,98157.41
2022-12-16T11:23:44.346Z,98161.59
2022-12-16T11:26:37.512Z,98165.78
2022-12-16T11:29:24.067Z,98158.84
2022-12-16T11:32:40.389Z,98158.81
2022-12-16T11:35:37.226Z,98154.41
2022-12-16T11:38:31.007Z,98156.00
2022-12-16T11:41:18.432Z,98154.19
2022-12-16T11:44:10.299Z,98165.31
2022-12-16T11:46:55.765Z,98162.75
2022-12-16T11:49:51.240Z,98164.34
2022-12-16T11:52:41.605Z,98159.84
2022-12-16T11:56:05.417Z,98166.66
2022-12-16T11:59:00.718Z,98169.09
2022-12-16T12:01:56.051Z,98163.72
2022-12-16T12:04:41.882Z,98166.13
2022-12-16T12:07:59.798Z,98168.56
2022-12-16T12:11:08.048Z,98168.69
2022-12-16T12:14:14.664Z,98173.75
2022-12-16T12:17:20.078Z,98171.91
2022-12-16T12:20:43.551Z,98172.69
2022-12-16T12:23:32.840Z,98178.59
2022-12-16T12:26:31.480Z,98174.94
2022-12-16T12:29:37.037Z,98182.69
2022-12-16T12:32:46.843Z,98189.47
2022-12-16T12:35:56.681Z,98189.25
2022-12-16T12:38:58.532Z,98188.41
2022-12-16T12:42:03.321Z,98189.81
2022-12-16T12:45:21.524Z,98186.13
2022-12-16T12:48:27.403Z,98185.06
2022-12-16T12:51:44.185Z,98190.84
2022-12-16T12:54:54.164Z,98188.00
2022-12-16T12:57:45.839Z,98190.34
2022-12-16T13:00:44.397Z,98204.81
2022-12-16T13:03:54.718Z,98202.06
2022-12-16T13:06:42.710Z,98199.75
2022-12-16T13:09:55.058Z,98203.69
2022-12-16T13:12:52.465Z,98198.16
2022-12-16T13:15:56.900Z,98203.38
2022-12-16T13:18:48.731Z,98197.97
2022-12-16T13:22:05.263Z,98201.44
2022-12-16T13:25:08.809Z,98198.72
2022-12-16T13:28:14.992Z,98207.69
2022-12-16T13:31:25.948Z,98206.06
2022-12-16T13:34:13.132Z,98212.78
2022-12-16T13:37:01.729Z,98212.66
2022-12-16T13:39:49.716Z,98217.66
2022-12-16T13:43:29.239Z,98228.06
2022-12-16T13:46:23.406Z,98221.47
2022-12-16T13:49:09.271Z,98224.88
2022-12-16T13:51:57.073Z,98223.16
2022-12-16T13:54:51.348Z,98230.00
2022-12-16T13:57:40.472Z,98232.78
2022-12-16T14:00:40.307Z,98241.53
2022-12-16T14:04:07.400Z,98249.28
2022-12-16T14:06:58.058Z,98244.81
2022-12-16T14:09:53.553Z,98244.84
2022-12-16T14:12:59.815Z,98239.16
2022-12-16T14:15:57.701Z,98252.25
2022-12-16T14:19:04.036Z,98257.34
2022-12-16T14:22:46.440Z,98266.19
2022-12-16T14:25:39.942Z,98267.88
2022-12-16T14:28:58.341Z,98277.63
2022-12-16T14:31:59.432Z,98273.34
2022-12-16T14:34:54.097Z,98285.47
2022-12-16T14:37:55.129Z,98289.88
2022-12-16T14:40:46.485Z,98294.16
2022-12-16T14:43:38.004Z,98299.16
2022-12-16T14:46:23.861Z,98300.00
2022-12-16T14:49:09.925Z,98305.31
2022-12-16T14:52:03.918Z,98298.41
2022-12-16T14:54:58.763Z,98307.25
2022-12-16T14:57:51.533Z,98312.53
2022-12-16T15:00:42.872Z,98308.25
2022-12-16T15:03:42.920Z,98314.47
2022-12-16T15:06:48.484Z,98318.03
2022-12-16T15:09:51.143Z,98318.09
2022-12-16T15:12:42.991Z,98321.81
2022-12-16T15:15:37.942Z,98330.44
2022-12-16T15:18:23.696Z,98323.44
2022-12-16T15:21:13.343Z,98332.91
2022-12-16T15:24:03.305Z,98343.34
2022-12-16T15:26:55.390Z,98346.97
2022-12-16T15:29:57.625Z,98347.81
2022-12-16T15:32:45.858Z,98346.25
2022-12-16T15:35:54.850Z,98351.50
2022-12-16T15:38:52.510Z,98360.00
2022-12-16T15:41:49.905Z,98360.84
2022-12-16T15:44:42.642Z,98366.22
2022-12-16T15:48:12.080Z,98380.81
2022-12-16T15:50:57.375Z,98390.16
2022-12-16T15:53:50.773Z,98388.47
2022-12-16T15:56:40.020Z,98388.47
2022-12-16T15:59:44.557Z,98408.47
2022-12-16T16:02:38.185Z,98405.94
2022-12-16T16:05:39.652Z,98411.94
2022-12-16T16:08:24.864Z,98411.88
2022-12-16T16:11:10.019Z,98421.19
2022-12-16T16:13:59.336Z,98418.53
2022-12-16T16:16:49.678Z,98422.75
2022-12-16T16:19:44.072Z,98428.91
2022-12-16T16:22:35.512Z,98440.13
2022-12-16T16:25:21.273Z,98438.59
2022-12-16T16:28:06.525Z,98448.03
2022-12-16T16:30:51.937Z,98444.81
2022-12-16T16:33:37.276Z,98448.19
2022-12-16T16:36:33.342Z,98449.94
2022-12-16T16:39:18.518Z,98453.41
2022-12-16T16:42:03.876Z,98455.19
2022-12-16T16:44:49.644Z,98471.34
2022-12-16T16:47:36.308Z,98467.81
2022-12-16T16:50:21.473Z,98468.63
2022-12-16T16:53:06.727Z,98474.63
2022-12-16T16:55:52.034Z,98481.53
2022-12-16T16:58:49.787Z,98485.94
2022-12-16T17:01:36.853Z,98486.84
2022-12-16T17:04:22.450Z,98493.13
2022-12-16T17:07:08.056Z,98500.72
2022-12-16T17:09:53.365Z,98497.22
2022-12-16T17:12:42.695Z,98500.63
2022-12-16T17:15:39.766Z,98501.53
2022-12-16T17:18:25.834Z,98505.72
2022-12-16T17:21:13.677Z,98510.03
2022-12-16T17:23:58.892Z,98511.00
2022-12-16T17:26:44.055Z,98523.06
2022-12-16T17:29:41.886Z,98521.28
2022-12-16T17:32:28.128Z,98529.00
2022-12-16T17:35:13.476Z,98525.56
2022-12-16T17:37:58.585Z,98520.41
2022-12-16T17:40:44.360Z,98526.31
2022-12-16T17:43:29.875Z,98532.28
2022-12-16T17:46:24.599Z,98534.03
2022-12-16T17:49:17.589Z,98542.81
2022-12-16T17:52:02.851Z,98543.69
2022-12-16T17:54:48.685Z,98547.19
2022-12-16T17:57:34.112Z,98545.44
2022-12-16T18:00:19.238Z,98548.00
2022-12-16T18:03:04.747Z,98555.66
2022-12-16T18:05:50.318Z,98559.94
2022-12-16T18:08:35.701Z,98565.16
2022-12-16T18:11:21.009Z,98570.31
2022-12-16T18:14:06.263Z,98574.59
2022-12-16T18:16:51.631Z,98581.41
2022-12-16T18:19:36.723Z,98588.25
2022-12-16T18:22:22.513Z,98594.22
2022-12-16T18:25:07.697Z,98589.09
2022-12-16T18:27:54.907Z,98593.34
2022-12-16T18:30:40.350Z,98593.34
2022-12-16T18:33:25.528Z,98595.97
2022-12-16T18:36:10.762Z,98605.38
2022-12-16T18:38:55.998Z,98605.38
2022-12-16T18:41:41.408Z,98608.81
2022-12-16T18:44:30.854Z,98607.09
2022-12-16T18:47:16.595Z,98613.94
2022-12-16T18:50:01.840Z,98619.91
2022-12-16T18:52:47.740Z,98615.59
2022-12-16T18:55:32.916Z,98611.34
2022-12-16T18:58:42.711Z,98619.06
2022-12-16T19:01:28.087Z,98627.59
2022-12-16T19:04:15.685Z,98628.47
2022-12-16T19:07:01.454Z,98628.47
2022-12-16T19:09:51.258Z,98636.16
2022-12-16T19:12:36.684Z,98643.84
2022-12-16T19:15:21.935Z,98658.31
2022-12-16T19:18:07.227Z,98658.28
2022-12-16T19:20:52.590Z,98660.00
2022-12-16T19:23:38.716Z,98665.16
2022-12-16T19:26:24.083Z,98664.28
2022-12-16T19:29:09.431Z,98672.84
2022-12-16T19:31:54.702Z,98674.53
2022-12-16T19:34:41.376Z,98682.94
2022-12-16T19:37:26.697Z,98686.41
2022-12-16T19:40:12.154Z,98682.16
2022-12-16T19:42:57.312Z,98689.88
2022-12-16T19:45:42.523Z,98696.69
2022-12-16T19:48:27.590Z,98695.81
2022-12-16T19:51:21.078Z,98700.06
2022-12-16T19:54:06.669Z,98700.88
2022-12-16T19:56:53.000Z,98704.31
2022-12-16T19:59:40.951Z,98719.56
2022-12-16T20:02:30.599Z,98713.50
2022-12-16T20:05:16.257Z,98717.84
2022-12-16T20:08:01.486Z,98725.56
2022-12-16T20:10:46.568Z,98735.88
2022-12-16T20:13:32.269Z,98733.38
2022-12-16T20:16:26.199Z,98731.72
2022-12-16T20:19:11.907Z,98725.75
2022-12-16T20:21:59.716Z,98734.28
2022-12-16T20:24:48.215Z,98735.13
2022-12-16T20:27:53.281Z,98732.53
2022-12-16T20:30:38.322Z,98734.03
2022-12-16T20:33:23.177Z,98743.44
2022-12-16T20:36:20.014Z,98740.78
2022-12-16T20:39:05.732Z,98741.69
2022-12-16T20:41:51.762Z,98744.16
2022-12-16T20:44:36.693Z,98742.53
2022-12-16T20:47:22.093Z,98745.19
2022-12-16T20:50:06.974Z,98751.19
2022-12-16T20:52:52.274Z,98749.47
2022-12-16T20:55:37.433Z,98760.41
2022-12-16T20:58:27.396Z,98759.41
2022-12-16T21:01:13.545Z,98761.84
2022-12-16T21:03:59.230Z,98767.78
2022-12-16T21:06:44.444Z,98769.44
2022-12-16T21:09:29.835Z,98771.91
2022-12-16T21:12:15.086Z,98772.88
2022-12-16T21:15:00.491Z,98774.72
2022-12-16T21:17:45.672Z,98777.50
2022-12-16T21:20:30.913Z,98781.03
2022-12-16T21:23:19.305Z,98787.94
2022-12-16T21:26:04.453Z,98782.75
2022-12-16T21:28:49.676Z,98789.41
2022-12-16T21:31:34.914Z,98786.94
2022-12-16T21:34:20.239Z,98798.09
2022-12-16T21:37:05.566Z,98792.19
2022-12-16T21:39:50.789Z,98794.78
2022-12-16T21:42:38.609Z,98811.88
2022-12-16T21:45:26.745Z,98813.50
2022-12-16T21:48:12.908Z,98821.09
2022-12-16T21:50:58.069Z,98836.25
2022-12-16T21:53:43.807Z,98843.91
2022-12-16T21:56:29.482Z,98840.47
2022-12-16T21:59:14.797Z,98849.06
2022-12-16T22:02:00.187Z,98850.09
2022-12-16T22:05:05.176Z,98857.81
2022-12-16T22:07:50.481Z,98847.34
2022-12-16T22:10:35.386Z,98855.13
2022-12-16T22:13:20.715Z,98852.50
2022-12-16T22:16:18.592Z,98857.31
2022-12-16T22:19:04.284Z,98864.13
2022-12-16T22:21:49.549Z,98863.28
2022-12-16T22:24:34.824Z,98871.06
2022-12-16T22:27:20.165Z,98881.25
2022-12-16T22:30:05.431Z,98876.91
2022-12-16T22:32:50.594Z,98876.09
2022-12-16T22:35:37.272Z,98884.66
2022-12-16T22:38:22.798Z,98880.41
2022-12-16T22:41:16.362Z,98888.25
2022-12-16T22:44:02.679Z,98890.91
2022-12-16T22:46:48.295Z,98890.03
2022-12-16T22:49:33.558Z,98892.59
2022-12-16T22:52:19.290Z,98888.41
2022-12-16T22:55:04.513Z,98886.63
2022-12-16T22:57:53.518Z,98890.94
2022-12-16T23:00:39.295Z,98888.44
2022-12-16T23:03:24.545Z,98897.88
2022-12-16T23:06:10.007Z,98902.19
2022-12-16T23:08:55.343Z,98889.38
2022-12-16T23:11:51.824Z,98893.53
2022-12-16T23:17:42.272Z,98894.44
2022-12-16T23:20:28.604Z,98897.13
2022-12-16T23:23:14.696Z,98903.16
2022-12-16T23:26:00.030Z,98903.25
2022-12-16T23:28:45.398Z,98908.44
2022-12-16T23:31:30.690Z,98901.59
2022-12-16T23:34:16.263Z,98911.75
2022-12-16T23:37:15.308Z,98919.44
2022-12-16T23:40:00.694Z,98915.28
2022-12-16T23:42:45.947Z,98921.22
2022-12-16T23:45:31.291Z,98920.19
2022-12-16T23:48:34.898Z,98921.03
2022-12-16T23:51:20.111Z,98926.25
2022-12-16T23:54:06.543Z,98934.75
2022-12-16T23:56:51.575Z,98931.19
2022-12-16T23:59:36.962Z,98938.75
